createdAt,value
2023-02-22T00:14:22.707Z,973.7
2023-02-22T00:44:25.000Z,973.5
2023-02-22T01:14:30.000Z,973.4
2023-02-22T01:44:36.533Z,973.2
2023-02-22T02:14:42.000Z,972.8
2023-02-22T02:44:50.000Z,972.5
2023-02-22T03:14:55.000Z,972.2
2023-02-22T03:45:01.399Z,972
2023-02-22T04:15:07.332Z,971.9
2023-02-22T04:45:15.330Z,971.9
2023-02-22T05:15:19.000Z,971.9
2023-02-22T05:45:22.000Z,971.7
2023-02-22T06:15:29.000Z,971.6
2023-02-22T06:45:31.000Z,971.8
2023-02-22T07:17:14.000Z,972.0
2023-02-22T07:47:21.000Z,972.0
2023-02-22T08:17:26.000Z,971.8
2023-02-22T08:47:30.000Z,971.7
2023-02-22T09:17:37.000Z,971.5
2023-02-22T09:47:39.000Z,971.3
2023-02-22T10:17:44.000Z,971.2
2023-02-22T10:49:41.000Z,971.1
2023-02-22T16:22:48.000Z,969.7
2023-02-22T16:22:59.000Z,969.7
2023-02-22T16:53:28.000Z,969.8
2023-02-22T17:23:42.000Z,970.2
2023-02-22T17:53:46.000Z,970.7
2023-02-22T18:23:50.000Z,970.7
2023-02-22T18:53:55.000Z,970.6
2023-02-22T19:23:58.000Z,970.6
2023-02-22T19:39:31.000Z,970.6
2023-02-22T20:09:47.000Z,970.6
2023-02-22T20:39:54.000Z,970.8
2023-02-22T20:40:05.000Z,970.8
2023-02-22T20:40:15.000Z,970.8
2023-02-22T20:40:26.000Z,970.8
2023-02-22T20:40:36.000Z,970.8
2023-02-22T21:11:44.000Z,970.8
2023-02-22T21:41:55.000Z,970.9
2023-02-22T22:11:59.301Z,970.8
2023-02-22T22:42:02.000Z,970.7
2023-02-22T23:12:05.033Z,970.6
2023-02-22T23:42:09.000Z,970.6
